createdAt,value
2022-08-12T00:00:50.603Z,24.10
2022-08-12T00:06:22.969Z,24.30
2022-08-12T00:09:09.841Z,24.40
2022-08-12T00:14:42.503Z,24.50
2022-08-12T00:17:27.891Z,24.50
2022-08-12T00:20:13.474Z,24.50
2022-08-12T00:23:07.553Z,24.60
2022-08-12T00:26:23.670Z,24.10
2022-08-12T00:29:09.026Z,24.30
2022-08-12T00:31:54.192Z,24.40
2022-08-12T00:37:25.250Z,24.30
2022-08-12T00:40:17.278Z,24.40
2022-08-12T00:42:46.271Z,24.40
2022-08-12T00:45:12.958Z,24.10
2022-08-12T00:47:39.870Z,24.30
2022-08-12T00:50:08.106Z,24.60
2022-08-12T00:52:35.848Z,24.50
2022-08-12T00:55:04.728Z,24.60
2022-08-12T00:57:36.360Z,24.40
2022-08-12T01:02:42.664Z,24.40
2022-08-12T01:05:32.652Z,24.10
2022-08-12T01:08:18.612Z,24.50
2022-08-12T01:11:05.472Z,24.30
2022-08-12T01:13:34.772Z,24.40
2022-08-12T01:16:04.738Z,24.20
2022-08-12T01:18:40.182Z,24.80
2022-08-12T01:21:12.704Z,24.40
2022-08-12T01:24:27.917Z,24.30
2022-08-12T01:26:59.006Z,24.40
2022-08-12T01:29:33.311Z,24.40
2022-08-12T01:32:06.506Z,24.50
2022-08-12T01:34:39.264Z,24.50
2022-08-12T01:37:09.112Z,24.30
2022-08-12T01:42:07.238Z,24.30
2022-08-12T01:44:35.602Z,24.40
2022-08-12T01:47:26.069Z,24.40
2022-08-12T01:50:17.627Z,24.40
2022-08-12T01:52:58.075Z,24.30
2022-08-12T01:55:33.262Z,24.30
2022-08-12T01:58:26.848Z,24.40
2022-08-12T02:01:04.474Z,24.40
2022-08-12T02:03:52.592Z,24.60
2022-08-12T02:07:07.095Z,24.40
2022-08-12T02:10:51.343Z,24.40
2022-08-12T02:13:15.063Z,24.30
2022-08-12T02:15:53.349Z,24.40
2022-08-12T02:18:38.018Z,24.30
2022-08-12T02:21:11.814Z,24.30
2022-08-12T02:23:39.877Z,24.00
2022-08-12T02:26:09.241Z,24.30
2022-08-12T02:28:38.589Z,24.40
2022-08-12T02:31:08.828Z,24.40
2022-08-12T02:33:37.377Z,24.10
2022-08-12T02:36:05.393Z,24.40
2022-08-12T02:38:32.816Z,24.30
2022-08-12T02:41:04.438Z,24.60
2022-08-12T02:46:13.735Z,24.30
2022-08-12T02:48:47.241Z,24.20
2022-08-12T02:51:19.319Z,24.10
2022-08-12T02:54:05.010Z,24.50
2022-08-12T02:59:04.047Z,24.20
2022-08-12T03:01:34.106Z,24.40
2022-08-12T03:06:45.922Z,24.30
2022-08-12T03:09:16.677Z,24.20
2022-08-12T03:12:04.366Z,24.30
2022-08-12T03:14:35.802Z,24.30
2022-08-12T03:17:17.639Z,24.10
2022-08-12T03:22:34.222Z,24.20
2022-08-12T03:25:03.677Z,24.30
2022-08-12T03:27:31.833Z,24.30
2022-08-12T03:29:59.426Z,24.10
2022-08-12T03:32:36.009Z,24.30
2022-08-12T03:35:08.409Z,24.30
2022-08-12T03:37:37.174Z,22.70
2022-08-12T03:40:04.901Z,24.40
2022-08-12T03:42:42.530Z,24.40
2022-08-12T03:48:33.013Z,24.30
2022-08-12T03:51:20.508Z,24.30
2022-08-12T03:54:06.886Z,24.20
2022-08-12T03:56:52.708Z,24.40
2022-08-12T03:59:38.195Z,24.30
2022-08-12T04:02:04.881Z,23.90
2022-08-12T04:07:09.759Z,24.00
2022-08-12T04:09:38.975Z,24.20
2022-08-12T04:14:56.939Z,24.30
2022-08-12T04:17:24.820Z,24.20
2022-08-12T04:19:52.911Z,24.30
2022-08-12T04:24:50.374Z,24.40
2022-08-12T04:27:17.505Z,24.40
2022-08-12T04:32:32.223Z,24.30
2022-08-12T04:37:26.578Z,24.40
2022-08-12T04:39:54.437Z,24.40
2022-08-12T04:42:21.888Z,24.30
2022-08-12T04:44:48.797Z,24.10
2022-08-12T04:47:16.816Z,24.70
2022-08-12T04:49:45.779Z,24.50
2022-08-12T04:52:12.827Z,24.30
2022-08-12T04:54:39.582Z,24.20
2022-08-12T04:57:09.336Z,24.30
2022-08-12T04:59:48.748Z,24.30
2022-08-12T05:02:21.534Z,24.20
2022-08-12T05:04:51.799Z,24.40
2022-08-12T05:07:20.113Z,24.20
2022-08-12T05:12:34.077Z,23.80
2022-08-12T05:15:00.912Z,23.30
2022-08-12T05:19:57.212Z,22.80
2022-08-12T05:22:26.367Z,22.60
2022-08-12T05:24:53.327Z,22.40
2022-08-12T05:27:22.560Z,22.40
2022-08-12T05:30:08.397Z,22.40
2022-08-12T05:32:36.625Z,22.10
2022-08-12T05:35:06.393Z,22.10
2022-08-12T05:37:34.734Z,22.00
2022-08-12T05:40:05.642Z,22.10
2022-08-12T05:42:35.201Z,22.10
2022-08-12T05:47:38.460Z,22.20
2022-08-12T05:50:15.857Z,22.00
2022-08-12T05:57:39.187Z,21.90
2022-08-12T06:00:06.633Z,21.90
2022-08-12T06:05:02.750Z,21.80
2022-08-12T06:07:59.810Z,21.70
2022-08-12T06:10:32.034Z,21.90
2022-08-12T06:13:06.829Z,21.80
2022-08-12T06:15:37.914Z,22.00
2022-08-12T06:18:11.446Z,22.10
2022-08-12T06:23:10.781Z,22.20
2022-08-12T06:25:37.733Z,22.00
2022-08-12T06:33:22.434Z,22.20
2022-08-12T06:35:51.442Z,22.50
2022-08-12T06:38:25.203Z,23.20
2022-08-12T06:41:15.466Z,22.90
2022-08-12T06:44:05.557Z,22.80
2022-08-12T06:51:29.769Z,23.30
2022-08-12T06:53:58.914Z,23.20
2022-08-12T06:56:40.231Z,23.30
2022-08-12T06:59:16.484Z,23.40
2022-08-12T07:01:50.859Z,23.40
2022-08-12T07:07:08.018Z,23.20
2022-08-12T07:10:04.298Z,23.30
2022-08-12T07:14:51.173Z,23.40
2022-08-12T07:19:47.043Z,23.60
2022-08-12T07:22:16.377Z,23.40
2022-08-12T07:27:10.258Z,23.30
2022-08-12T07:29:58.372Z,23.20
2022-08-12T07:32:29.533Z,23.50
2022-08-12T07:39:59.612Z,23.60
2022-08-12T07:42:27.834Z,23.40
2022-08-12T07:44:55.744Z,23.00
2022-08-12T07:47:22.942Z,23.50
2022-08-12T07:50:04.270Z,23.50
2022-08-12T07:52:38.261Z,23.30
2022-08-12T07:55:05.554Z,23.50
2022-08-12T07:57:32.822Z,23.80
2022-08-12T08:02:33.523Z,23.20
2022-08-12T08:05:00.505Z,23.70
2022-08-12T08:07:30.474Z,23.40
2022-08-12T08:10:02.140Z,23.70
2022-08-12T08:15:15.518Z,23.70
2022-08-12T08:17:56.460Z,23.60
2022-08-12T08:20:26.333Z,23.50
2022-08-12T08:22:53.224Z,23.70
2022-08-12T08:28:10.118Z,23.60
2022-08-12T08:30:40.061Z,23.50
2022-08-12T08:33:23.665Z,23.60
2022-08-12T08:35:57.914Z,23.60
2022-08-12T08:38:32.651Z,23.60
2022-08-12T08:42:14.186Z,23.60
2022-08-12T08:44:10.755Z,23.50
2022-08-12T08:46:38.753Z,23.40
2022-08-12T08:49:05.827Z,23.50
2022-08-12T08:51:32.725Z,23.60
2022-08-12T08:53:59.466Z,23.50
2022-08-12T08:58:57.423Z,23.50
2022-08-12T09:01:24.936Z,23.50
2022-08-12T09:05:07.636Z,23.40
2022-08-12T09:06:41.874Z,23.60
2022-08-12T09:14:43.525Z,23.70
2022-08-12T09:17:21.379Z,23.80
2022-08-12T09:19:57.478Z,23.60
2022-08-12T09:22:29.161Z,23.80
2022-08-12T09:24:56.324Z,23.90
2022-08-12T09:28:03.576Z,23.50
2022-08-12T09:30:16.018Z,23.60
2022-08-12T09:33:03.991Z,23.60
2022-08-12T09:35:33.632Z,23.70
2022-08-12T09:38:29.850Z,23.60
2022-08-12T09:42:09.388Z,23.70
2022-08-12T09:44:05.173Z,23.70
2022-08-12T09:46:34.597Z,23.70
2022-08-12T09:49:03.994Z,23.50
2022-08-12T09:51:37.373Z,23.80
2022-08-12T09:54:33.773Z,23.70
2022-08-12T09:58:44.465Z,23.80
2022-08-12T10:03:32.297Z,23.80
2022-08-12T10:08:49.691Z,23.50
2022-08-12T10:19:36.699Z,23.60
2022-08-12T10:22:05.947Z,23.50
2022-08-12T10:25:04.613Z,23.80
2022-08-12T10:28:07.057Z,23.70
2022-08-12T10:30:46.759Z,23.70
2022-08-12T10:33:31.459Z,23.80
2022-08-12T10:36:00.227Z,23.70
2022-08-12T10:38:35.854Z,23.90
2022-08-12T10:41:58.029Z,23.70
2022-08-12T10:44:16.914Z,23.70
2022-08-12T10:46:49.946Z,23.70
2022-08-12T10:50:02.724Z,23.90
2022-08-12T10:52:34.856Z,23.60
2022-08-12T10:55:01.983Z,23.80
2022-08-12T10:58:15.021Z,23.50
2022-08-12T11:00:30.912Z,24.00
2022-08-12T11:04:35.838Z,23.60
2022-08-12T11:08:43.310Z,23.70
2022-08-12T11:11:17.818Z,23.70
2022-08-12T11:14:04.854Z,23.80
2022-08-12T11:16:32.637Z,24.00
2022-08-12T11:18:59.356Z,23.70
2022-08-12T11:24:30.444Z,23.70
2022-08-12T11:27:08.079Z,23.90
2022-08-12T11:30:02.137Z,23.80
2022-08-12T11:32:24.887Z,24.00
2022-08-12T11:34:54.800Z,23.80
2022-08-12T11:42:39.633Z,23.40
2022-08-12T11:45:13.021Z,23.80
2022-08-12T11:47:43.337Z,23.60
2022-08-12T11:50:11.688Z,23.60
2022-08-12T11:52:56.382Z,23.60
2022-08-12T11:55:24.898Z,24.00
2022-08-12T11:58:14.567Z,23.80
2022-08-12T12:03:44.130Z,23.90
2022-08-12T12:06:17.194Z,23.80
2022-08-12T12:08:50.366Z,23.80
2022-08-12T12:11:18.513Z,24.00
2022-08-12T12:14:06.423Z,23.80
2022-08-12T12:16:33.326Z,23.90
2022-08-12T12:24:21.199Z,23.70
2022-08-12T12:27:00.982Z,23.70
2022-08-12T12:30:19.044Z,23.70
2022-08-12T12:32:18.886Z,24.10
2022-08-12T12:35:44.268Z,23.80
2022-08-12T12:38:03.425Z,23.80
2022-08-12T12:40:21.253Z,23.50
2022-08-12T12:45:27.044Z,23.60
2022-08-12T12:50:26.850Z,23.80
2022-08-12T12:53:02.771Z,23.70
2022-08-12T12:55:32.669Z,23.70
2022-08-12T12:58:04.554Z,24.00
2022-08-12T13:00:36.313Z,23.30
2022-08-12T13:03:03.042Z,23.80
2022-08-12T13:05:42.089Z,23.40
2022-08-12T13:11:00.344Z,23.80
2022-08-12T13:14:09.648Z,23.90
2022-08-12T13:16:21.527Z,23.80
2022-08-12T13:18:53.277Z,23.80
2022-08-12T13:21:33.573Z,23.90
2022-08-12T13:24:09.978Z,23.70
2022-08-12T13:26:38.654Z,23.80
2022-08-12T13:32:17.511Z,23.80
2022-08-12T13:34:32.909Z,23.90
2022-08-12T13:37:04.336Z,23.70
2022-08-12T13:42:03.044Z,23.50
2022-08-12T13:44:30.124Z,23.90
2022-08-12T13:46:58.051Z,23.80
2022-08-12T13:49:54.940Z,23.60
2022-08-12T13:52:13.837Z,23.90
2022-08-12T13:54:40.611Z,23.70
2022-08-12T13:57:11.163Z,23.60
2022-08-12T13:59:48.128Z,23.70
2022-08-12T14:04:56.576Z,23.90
2022-08-12T14:07:26.024Z,23.60
2022-08-12T14:10:16.512Z,23.90
2022-08-12T14:12:54.815Z,23.60
2022-08-12T14:15:36.531Z,23.90
2022-08-12T14:18:13.357Z,23.80
2022-08-12T14:20:41.037Z,23.90
2022-08-12T14:23:16.500Z,23.80
2022-08-12T14:28:32.240Z,23.80
2022-08-12T14:31:02.315Z,24.00
2022-08-12T14:33:44.301Z,23.90
2022-08-12T14:36:12.890Z,23.50
2022-08-12T14:38:44.285Z,23.70
2022-08-12T14:41:20.829Z,23.70
2022-08-12T14:46:37.780Z,23.80
2022-08-12T15:00:33.200Z,23.80
2022-08-12T15:03:03.338Z,23.70
2022-08-12T15:06:06.122Z,23.80
2022-08-12T15:08:29.940Z,24.00
2022-08-12T15:13:31.724Z,23.80
2022-08-12T15:16:01.416Z,23.90
2022-08-12T15:18:30.613Z,23.80
2022-08-12T15:21:04.031Z,23.90
2022-08-12T15:23:54.793Z,24.00
2022-08-12T15:26:21.221Z,23.80
2022-08-12T15:28:54.934Z,23.60
2022-08-12T15:31:28.276Z,23.50
2022-08-12T15:34:08.847Z,23.90
2022-08-12T15:36:53.952Z,23.70
2022-08-12T15:39:22.482Z,23.80
2022-08-12T15:41:50.852Z,23.80
2022-08-12T15:47:10.289Z,23.90
2022-08-12T15:49:54.515Z,23.80
2022-08-12T15:52:27.146Z,23.90
2022-08-12T15:54:58.475Z,23.90
2022-08-12T16:00:04.349Z,23.90
2022-08-12T16:02:50.146Z,23.80
2022-08-12T16:06:11.987Z,23.90
2022-08-12T16:08:18.386Z,23.70
2022-08-12T16:16:03.911Z,23.70
2022-08-12T16:18:35.498Z,23.80
2022-08-12T16:21:02.180Z,23.70
2022-08-12T16:23:51.627Z,23.90
2022-08-12T16:34:40.131Z,23.50
2022-08-12T16:37:07.198Z,23.60
2022-08-12T16:39:59.440Z,23.70
2022-08-12T16:42:27.738Z,23.70
2022-08-12T16:45:00.413Z,23.80
2022-08-12T16:47:30.101Z,23.60
2022-08-12T16:50:19.161Z,23.50
2022-08-12T16:52:49.413Z,23.50
2022-08-12T16:55:16.546Z,23.60
2022-08-12T17:00:17.662Z,23.90
2022-08-12T17:02:57.222Z,23.60
2022-08-12T17:05:31.039Z,23.80
2022-08-12T17:07:59.922Z,23.70
2022-08-12T17:10:36.220Z,23.60
2022-08-12T17:13:10.152Z,24.00
2022-08-12T17:15:57.543Z,23.50
2022-08-12T17:18:42.979Z,24.00
2022-08-12T17:21:15.143Z,23.60
2022-08-12T17:23:53.489Z,24.00
2022-08-12T17:26:28.276Z,23.50
2022-08-12T17:29:00.886Z,23.70
2022-08-12T17:34:38.636Z,23.70
2022-08-12T17:37:06.292Z,23.80
2022-08-12T17:40:12.567Z,23.80
2022-08-12T17:48:01.437Z,23.80
2022-08-12T17:50:33.932Z,23.80
2022-08-12T17:53:03.269Z,23.80
2022-08-12T17:55:40.132Z,23.80
2022-08-12T17:58:13.105Z,23.50
2022-08-12T18:00:44.071Z,23.80
2022-08-12T18:03:57.601Z,23.60
2022-08-12T18:06:08.490Z,23.80
2022-08-12T18:08:54.935Z,23.80
2022-08-12T18:12:06.471Z,23.70
2022-08-12T18:17:00.364Z,23.80
2022-08-12T18:20:03.606Z,23.40
2022-08-12T18:22:17.646Z,23.80
2022-08-12T18:24:50.506Z,23.70
2022-08-12T18:27:44.775Z,23.70
2022-08-12T18:30:20.866Z,23.90
2022-08-12T18:33:04.687Z,23.70
2022-08-12T18:35:47.274Z,23.80
2022-08-12T18:38:24.999Z,23.90
2022-08-12T18:41:21.810Z,23.60
2022-08-12T18:44:05.195Z,23.70
2022-08-12T18:46:46.705Z,24.00
2022-08-12T18:49:33.378Z,23.80
2022-08-12T18:52:07.719Z,24.10
2022-08-12T18:54:49.083Z,23.70
2022-08-12T18:57:46.079Z,23.60
2022-08-12T19:00:13.039Z,24.00
2022-08-12T19:07:49.916Z,23.80
2022-08-12T19:10:27.923Z,23.70
2022-08-12T19:13:24.250Z,23.80
2022-08-12T19:15:58.291Z,23.50
2022-08-12T19:18:30.068Z,23.80
2022-08-12T19:21:00.289Z,23.90
2022-08-12T19:26:05.025Z,23.80
2022-08-12T19:28:36.383Z,23.80
2022-08-12T19:31:55.848Z,23.80
2022-08-12T19:37:27.138Z,23.60
2022-08-12T19:40:09.628Z,23.80
2022-08-12T19:42:42.671Z,23.70
2022-08-12T19:45:14.048Z,23.70
2022-08-12T19:47:44.579Z,23.50
2022-08-12T19:50:11.975Z,23.60
2022-08-12T19:55:11.557Z,24.50
2022-08-12T19:58:01.649Z,23.80
2022-08-12T20:00:31.715Z,23.60
2022-08-12T20:03:00.860Z,24.10
2022-08-12T20:06:05.215Z,24.00
2022-08-12T20:08:26.435Z,23.80
2022-08-12T20:12:15.239Z,23.80
2022-08-12T20:14:00.579Z,23.70
2022-08-12T20:16:51.998Z,23.60
2022-08-12T20:19:16.875Z,23.60
2022-08-12T20:21:44.315Z,23.60
2022-08-12T20:24:14.032Z,23.70
2022-08-12T20:26:41.985Z,24.00
2022-08-12T20:29:10.949Z,23.60
2022-08-12T20:34:06.278Z,23.90
2022-08-12T20:36:42.867Z,23.60
2022-08-12T20:39:33.857Z,23.90
2022-08-12T20:42:01.772Z,23.70
2022-08-12T20:44:30.444Z,23.70
2022-08-12T20:47:06.343Z,23.80
2022-08-12T20:49:45.229Z,23.80
2022-08-12T20:52:15.269Z,23.80
2022-08-12T20:54:52.368Z,23.60
2022-08-12T20:57:22.907Z,23.50
2022-08-12T20:59:52.497Z,23.70
2022-08-12T21:02:24.130Z,23.70
2022-08-12T21:07:52.189Z,23.50
2022-08-12T21:10:20.788Z,23.70
2022-08-12T21:12:48.001Z,23.70
2022-08-12T21:15:17.386Z,23.50
2022-08-12T21:18:15.468Z,23.80
2022-08-12T21:20:54.236Z,23.70
2022-08-12T21:23:22.600Z,23.70
2022-08-12T21:28:20.374Z,23.80
2022-08-12T21:33:58.592Z,23.90
2022-08-12T21:36:34.585Z,23.70
2022-08-12T21:39:20.280Z,23.70
2022-08-12T21:41:56.206Z,23.80
2022-08-12T21:45:45.941Z,23.60
2022-08-12T21:47:21.462Z,23.80
2022-08-12T21:49:54.638Z,23.80
2022-08-12T21:52:28.353Z,23.80
2022-08-12T21:55:18.310Z,23.70
2022-08-12T21:57:50.555Z,23.90
2022-08-12T22:03:04.485Z,23.80
2022-08-12T22:08:22.232Z,23.70
2022-08-12T22:10:56.585Z,23.70
2022-08-12T22:14:07.226Z,23.50
2022-08-12T22:16:13.079Z,23.50
2022-08-12T22:18:41.462Z,23.70
2022-08-12T22:21:09.053Z,23.50
2022-08-12T22:23:52.216Z,23.80
2022-08-12T22:29:23.808Z,23.90
2022-08-12T22:31:54.481Z,23.50
2022-08-12T22:34:21.865Z,23.80
2022-08-12T22:36:57.231Z,23.80
2022-08-12T22:39:24.116Z,23.80
2022-08-12T22:44:57.909Z,23.60
2022-08-12T22:47:53.503Z,23.50
2022-08-12T22:50:27.778Z,23.80
2022-08-12T22:53:15.033Z,23.60
2022-08-12T22:56:05.831Z,23.70
2022-08-12T22:58:33.935Z,23.60
2022-08-12T23:03:48.149Z,23.80
2022-08-12T23:06:23.609Z,23.80
2022-08-12T23:08:52.216Z,23.80
2022-08-12T23:11:23.558Z,23.80
2022-08-12T23:19:29.323Z,23.80
2022-08-12T23:22:35.752Z,23.80
2022-08-12T23:24:55.965Z,23.70
2022-08-12T23:27:51.158Z,23.80
2022-08-12T23:30:25.133Z,23.80
2022-08-12T23:32:59.461Z,23.80
2022-08-12T23:35:45.879Z,23.80
2022-08-12T23:48:36.749Z,23.70
2022-08-12T23:56:17.671Z,24.00
